
Distance (Route):
Temperature : 16.3°C
Humidity : 41.6%
Pressure : 0hPa| Receiver | Date | Latitude | Longitude | Direction | Speed | Altitude | Climb | Temperature | Humidity | Pressure | Voltage | Killtimer | Uptime | BKT | XDATA |
|---|---|---|---|---|---|---|---|---|---|---|---|---|---|---|---|
| LZ4TU-5 | 2026-09-05 19:06:09 | 43.20939 | 22.69816 | 150° | 26km/h | 2309m | -15.0m/s | 16.3°C | 41.6% | 0hPa | 0V | 00:00:00 | 00:00:00 | 00:00:00 | |
| LZ4TU-5 | 2026-09-05 19:06:05 | 43.20960 | 22.69796 | 144° | 26km/h | 2367m | -14.8m/s | 15.8°C | 42.3% | 0hPa | 0V | 00:00:00 | 00:00:00 | 00:00:00 | |
| LZ4TU-5 | 2026-09-05 19:06:00 | 43.20985 | 22.69769 | 137° | 26km/h | 2447m | -15.2m/s | 15.3°C | 41.7% | 0hPa | 0V | 00:00:00 | 00:00:00 | 00:00:00 | |
| LZ4TU-5 | 2026-09-05 19:05:55 | 43.21008 | 22.69733 | 131° | 27km/h | 2527m | -14.7m/s | 14.8°C | 43.7% | 0hPa | 0V | 00:00:00 | 00:00:00 | 00:00:00 | |
| LZ4TU-5 | 2026-09-05 19:05:51 | 43.21027 | 22.69703 | 130° | 27km/h | 2589m | -14.7m/s | 14.2°C | 45.2% | 0hPa | 0V | 00:00:00 | 00:00:00 | 00:00:00 | |
| LZ4TU-5 | 2026-09-05 19:05:46 | 43.21051 | 22.69666 | 127° | 29km/h | 2663m | -14.4m/s | 13.5°C | 48.1% | 0hPa | 0V | 00:00:00 | 00:00:00 | 00:00:00 | |
| LZ4TU-5 | 2026-09-05 19:05:42 | 43.21067 | 22.69631 | 126° | 31km/h | 2712m | -14.4m/s | 13.0°C | 49.7% | 0hPa | 0V | 00:00:00 | 00:00:00 | 00:00:00 | |
| LZ4TU-5 | 2026-09-05 19:05:37 | 43.21091 | 22.69586 | 124° | 33km/h | 2787m | -14.4m/s | 12.3°C | 50.9% | 0hPa | 0V | 00:00:00 | 00:00:00 | 00:00:00 | |
| LZ4TU-5 | 2026-09-05 19:05:33 | 43.21108 | 22.69548 | 122° | 33km/h | 2846m | -14.4m/s | 11.7°C | 51.3% | 0hPa | 0V | 00:00:00 | 00:00:00 | 00:00:00 | |
| LZ4TU-5 | 2026-09-05 19:05:29 | 43.21125 | 22.69507 | 120° | 35km/h | 2902m | -14.4m/s | 11.4°C | 51.4% | 0hPa | 0V | 00:00:00 | 00:00:00 | 00:00:00 | |
| LZ4TU-5 | 2026-09-05 19:05:24 | 43.21148 | 22.69453 | 124° | 37km/h | 2970m | -14.6m/s | 11.4°C | 48.0% | 0hPa | 0V | 00:00:00 | 00:00:00 | 00:00:00 | |
| LZ4TU-5 | 2026-09-05 19:05:20 | 43.21168 | 22.69411 | 124° | 37km/h | 3030m | -14.6m/s | 11.2°C | 42.9% | 0hPa | 0V | 00:00:00 | 00:00:00 | 00:00:00 | |
| LZ4TU-5 | 2026-09-05 19:05:15 | 43.21195 | 22.69361 | 130° | 33km/h | 3105m | -15.5m/s | 10.8°C | 35.7% | 0hPa | 0V | 00:00:00 | 00:00:00 | 00:00:00 | |
| LZ4TU-5 | 2026-09-05 19:05:11 | 43.21216 | 22.69326 | 131° | 31km/h | 3163m | -16.0m/s | 10.4°C | 36.3% | 0hPa | 0V | 00:00:00 | 00:00:00 | 00:00:00 | |
| LZ4TU-5 | 2026-09-05 19:05:06 | 43.21242 | 22.69285 | 130° | 33km/h | 3242m | -15.1m/s | 10.0°C | 34.3% | 0hPa | 0V | 00:00:00 | 00:00:00 | 00:00:00 | |
| LZ4TU-5 | 2026-09-05 19:05:01 | 43.21266 | 22.69238 | 123° | 37km/h | 3322m | -16.2m/s | 9.8°C | 38.2% | 0hPa | 0V | 00:00:00 | 00:00:00 | 00:00:00 | |
| LZ4TU-5 | 2026-09-05 19:04:56 | 43.21289 | 22.69184 | 121° | 35km/h | 3400m | -16.2m/s | 9.5°C | 38.2% | 0hPa | 0V | 00:00:00 | 00:00:00 | 00:00:00 | |
| LZ4TU-5 | 2026-09-05 19:04:52 | 43.21306 | 22.69142 | 123° | 37km/h | 3467m | -15.8m/s | 9.0°C | 37.5% | 0hPa | 0V | 00:00:00 | 00:00:00 | 00:00:00 | |
| LZ4TU-5 | 2026-09-05 19:04:47 | 43.21331 | 22.69086 | 121° | 38km/h | 3549m | -16.0m/s | 8.4°C | 38.3% | 0hPa | 0V | 00:00:00 | 00:00:00 | 00:00:00 | |
| LZ4TU-5 | 2026-09-05 19:04:42 | 43.21354 | 22.69030 | 120° | 37km/h | 3628m | -15.4m/s | 7.7°C | 39.2% | 0hPa | 0V | 00:00:00 | 00:00:00 | 00:00:00 | |
| LZ4TU-5 | 2026-09-05 19:04:37 | 43.21377 | 22.68975 | 119° | 35km/h | 3699m | -16.2m/s | 6.9°C | 40.7% | 0hPa | 0V | 00:00:00 | 00:00:00 | 00:00:00 | |
| LZ4TU-5 | 2026-09-05 19:04:32 | 43.21397 | 22.68925 | 118° | 33km/h | 3780m | -15.3m/s | 6.3°C | 42.5% | 0hPa | 0V | 00:00:00 | 00:00:00 | 00:00:00 | |
| LZ4TU-5 | 2026-09-05 19:04:27 | 43.21413 | 22.68872 | 110° | 31km/h | 3857m | -15.1m/s | 5.6°C | 45.7% | 0hPa | 0V | 00:00:00 | 00:00:00 | 00:00:00 | |
| LZ4TU-5 | 2026-09-05 19:04:23 | 43.21424 | 22.68828 | 109° | 31km/h | 3913m | -15.6m/s | 5.0°C | 47.2% | 0hPa | 0V | 00:00:00 | 00:00:00 | 00:00:00 | |
| LZ4TU-5 | 2026-09-05 19:04:18 | 43.21436 | 22.68778 | 108° | 31km/h | 3995m | -16.2m/s | 4.4°C | 47.5% | 0hPa | 0V | 00:00:00 | 00:00:00 | 00:00:00 | |
| LZ4TU-5 | 2026-09-05 19:04:13 | 43.21447 | 22.68728 | 106° | 29km/h | 4081m | -16.1m/s | 3.8°C | 47.5% | 0hPa | 0V | 00:00:00 | 00:00:00 | 00:00:00 | |
| LZ4TU-5 | 2026-09-05 19:04:08 | 43.21456 | 22.68680 | 107° | 31km/h | 4163m | -15.8m/s | 3.0°C | 48.2% | 0hPa | 0V | 00:00:00 | 00:00:00 | 00:00:00 | |
| LZ4TU-5 | 2026-09-05 19:04:03 | 43.21468 | 22.68625 | 109° | 33km/h | 4233m | -15.3m/s | 2.4°C | 47.2% | 0hPa | 0V | 00:00:00 | 00:00:00 | 00:00:00 | |
| LZ4TU-5 | 2026-09-05 19:03:58 | 43.21480 | 22.68572 | 109° | 33km/h | 4315m | -15.9m/s | 1.8°C | 46.0% | 0hPa | 0V | 00:00:00 | 00:00:00 | 00:00:00 | |
| LZ4TU-5 | 2026-09-05 19:03:54 | 43.21492 | 22.68528 | 110° | 33km/h | 4383m | -15.6m/s | 1.4°C | 0% | 0hPa | 0V | 00:00:00 | 00:00:00 | 00:00:00 | |
| LZ4TU-5 | 2026-09-05 19:03:49 | 43.21506 | 22.68474 | 110° | 35km/h | 4465m | -16.5m/s | 0.8°C | 42.5% | 0hPa | 0V | 00:00:00 | 00:00:00 | 00:00:00 | |
| LZ4TU-5 | 2026-09-05 19:03:45 | 43.21517 | 22.68430 | 112° | 35km/h | 4525m | -16.7m/s | 0.3°C | 43.8% | 0hPa | 0V | 00:00:00 | 00:00:00 | 00:00:00 | |
| LZ4TU-5 | 2026-09-05 19:03:40 | 43.21532 | 22.68373 | 109° | 35km/h | 4613m | -16.9m/s | -0.5°C | 45.6% | 0hPa | 0V | 00:00:00 | 00:00:00 | 00:00:00 | |
| LZ4TU-5 | 2026-09-05 19:03:35 | 43.21544 | 22.68318 | 106° | 33km/h | 4699m | -16.8m/s | -1.2°C | 46.0% | 0hPa | 0V | 00:00:00 | 00:00:00 | 00:00:00 | |
| LZ4TU-5 | 2026-09-05 19:03:30 | 43.21553 | 22.68267 | 104° | 29km/h | 4778m | -16.7m/s | -1.7°C | 43.6% | 0hPa | 0V | 00:00:00 | 00:00:00 | 00:00:00 | |
| LZ4TU-5 | 2026-09-05 19:02:28 | 43.21743 | 22.67457 | 118° | 49km/h | 5822m | -16.8m/s | -8.6°C | 31.7% | 0hPa | 0V | 00:00:00 | 00:00:00 | 00:00:00 | |
| LZ4TU-5 | 2026-09-05 19:02:23 | 43.21774 | 22.67380 | 121° | 53km/h | 5911m | -16.8m/s | -8.7°C | 0% | 0hPa | 0V | 00:00:00 | 00:00:00 | 00:00:00 | |
| LZ4TU-5 | 2026-09-05 19:01:21 | 43.22092 | 22.66378 | 112° | 57km/h | 6971m | -18.4m/s | -15.8°C | 23.0% | 0hPa | 0V | 00:00:00 | 00:00:00 | 00:00:00 | |
| LZ4TU-5 | 2026-09-05 19:01:17 | 43.22107 | 22.66306 | 106° | 51km/h | 7043m | -17.6m/s | -16.4°C | 22.3% | 0hPa | 0V | 00:00:00 | 00:00:00 | 00:00:00 | |
| LZ4TU-5 | 2026-09-05 19:00:16 | 43.22266 | 22.65097 | 93° | 58km/h | 8140m | -19.7m/s | -23.8°C | 13.6% | 0hPa | 0V | 00:00:00 | 00:00:00 | 00:00:00 | |
| LZ4TU-5 | 2026-09-05 19:00:12 | 43.22271 | 22.65019 | 96° | 57km/h | 8202m | -19.6m/s | -24.5°C | 13.2% | 0hPa | 0V | 00:00:00 | 00:00:00 | 00:00:00 | |
| LZ4TU-5 | 2026-09-05 19:00:05 | 43.22288 | 22.64871 | 102° | 62km/h | 8337m | -19.1m/s | -25.5°C | 0% | 0hPa | 0V | 00:00:00 | 00:00:00 | 00:00:00 | |
| LZ4TU-5 | 2026-09-05 18:58:57 | 43.22669 | 22.63440 | 111° | 71km/h | 9665m | -20.0m/s | -35.6°C | 18.8% | 0hPa | 0V | 00:00:00 | 00:00:00 | 00:00:00 | |
| LZ4TU-5 | 2026-09-05 18:58:52 | 43.22698 | 22.63317 | 105° | 75km/h | 9768m | -20.2m/s | -36.1°C | 22.6% | 0hPa | 0V | 00:00:00 | 00:00:00 | 00:00:00 | |
| LZ4TU-5 | 2026-09-05 18:57:44 | 43.23064 | 22.61694 | 111° | 80km/h | 11191m | -22.1m/s | -48.1°C | 40.0% | 0hPa | 0V | 00:00:00 | 00:00:00 | 00:00:00 | |
| LZ4TU-5 | 2026-09-05 18:57:40 | 43.23091 | 22.61592 | 111° | 80km/h | 11284m | -22.5m/s | -49.0°C | 0% | 0hPa | 0V | 00:00:00 | 00:00:00 | 00:00:00 | |
| LZ4TU-5 | 2026-09-05 18:56:32 | 43.23464 | 22.59739 | 105° | 84km/h | 12896m | -25.5m/s | -58.8°C | 12.2% | 0hPa | 0V | 00:00:00 | 00:00:00 | 00:00:00 | |
| LZ4TU-5 | 2026-09-05 18:56:28 | 43.23485 | 22.59627 | 106° | 82km/h | 13000m | -25.3m/s | -59.4°C | 0% | 0hPa | 0V | 00:00:00 | 00:00:00 | 00:00:00 | |
| OM5KV | 2026-09-05 18:49:46 | 43.23736 | 22.55697 | 181° | 15km/h | 32419m | 6.0m/s | -39.7°C | 0.0% | 0hPa | 0V | 00:00:00 | 00:00:00 | 00:00:00 | |
| LZ4TU-5 | 2026-09-05 18:49:40 | 43.23760 | 22.55706 | 250° | 27km/h | 32381m | 6.7m/s | -40.7°C | 0.0% | 0hPa | 0V | 00:00:00 | 00:00:00 | 00:00:00 | |
| OM5KV | 2026-09-05 18:49:37 | 43.23764 | 22.55732 | 289° | 38km/h | 32359m | 7.0m/s | -40.7°C | 0.0% | 0hPa | 0V | 00:00:00 | 00:00:00 | 00:00:00 | |
| LZ4TU-5 | 2026-09-05 18:49:35 | 43.23753 | 22.55760 | 308° | 53km/h | 32346m | 6.1m/s | -40.7°C | 0.0% | 0hPa | 0V | 00:00:00 | 00:00:00 | 00:00:00 | |
| OM5KV | 2026-09-05 18:49:31 | 43.23729 | 22.55783 | 67° | 5km/h | 32320m | 7.4m/s | -40.7°C | 0.0% | 0hPa | 0V | 00:00:00 | 00:00:00 | 00:00:00 | |
| OM5KV | 2026-09-05 18:49:25 | 43.23732 | 22.55808 | 305° | 35km/h | 32278m | 7.4m/s | -40.6°C | 0.0% | 0hPa | 0V | 00:00:00 | 00:00:00 | 00:00:00 | |
| OM5KV | 2026-09-05 18:49:19 | 43.23702 | 22.55840 | 247° | 24km/h | 32235m | 7.1m/s | -40.5°C | 0.0% | 0hPa | 0V | 00:00:00 | 00:00:00 | 00:00:00 | |
| OM5KV | 2026-09-05 18:49:12 | 43.23698 | 22.55885 | 342° | 38km/h | 32193m | 5.8m/s | -40.4°C | 0.0% | 0hPa | 0V | 00:00:00 | 00:00:00 | 00:00:00 | |
| OM5KV | 2026-09-05 18:48:59 | 43.23647 | 22.56020 | 289° | 49km/h | 32103m | 5.6m/s | -39.9°C | 0.0% | 0hPa | 0V | 00:00:00 | 00:00:00 | 00:00:00 | |
| OM5KV | 2026-09-05 18:48:52 | 43.23648 | 22.56066 | 287° | 22km/h | 32063m | 7.0m/s | -39.9°C | 0.0% | 0hPa | 0V | 00:00:00 | 00:00:00 | 00:00:00 | |
| OM5KV | 2026-09-05 18:48:44 | 43.23614 | 22.56174 | 269° | 22km/h | 32000m | 9.2m/s | -40.0°C | 0.0% | 0hPa | 0V | 00:00:00 | 00:00:00 | 00:00:00 | |
| OM5KV | 2026-09-05 18:48:28 | 43.23597 | 22.56321 | 337° | 27km/h | 31884m | 5.7m/s | -39.6°C | 0.0% | 0hPa | 0V | 00:00:00 | 00:00:00 | 00:00:00 | |
| OM5KV | 2026-09-05 18:48:21 | 43.23584 | 22.56408 | 260° | 35km/h | 31835m | 7.3m/s | -39.6°C | 0.0% | 0hPa | 0V | 00:00:00 | 00:00:00 | 00:00:00 | |
| LZ4TU-5 | 2026-09-05 18:48:16 | 43.23576 | 22.56430 | 290° | 16km/h | 31795m | 6.2m/s | -39.6°C | 0.0% | 0hPa | 0V | 00:00:00 | 00:00:00 | 00:00:00 | |
| OM5KV | 2026-09-05 18:48:01 | 43.23569 | 22.56527 | 312° | 42km/h | 31684m | 4.4m/s | -39.6°C | 0.0% | 0hPa | 0V | 00:00:00 | 00:00:00 | 00:00:00 | |
| OM5KV | 2026-09-05 18:46:50 | 43.23495 | 22.57043 | 244° | 27km/h | 31184m | 7.6m/s | -40.1°C | 0.0% | 0hPa | 0V | 00:00:00 | 00:00:00 | 00:00:00 | |
| LZ4TU-5 | 2026-09-05 18:46:42 | 43.23518 | 22.57060 | 334° | 31km/h | 31129m | 8.2m/s | -40.3°C | 0.0% | 0hPa | 0V | 00:00:00 | 00:00:00 | 00:00:00 | |
| OM5KV | 2026-09-05 18:46:40 | 43.23502 | 22.57071 | 329° | 35km/h | 31119m | 3.0m/s | -40.3°C | 0.0% | 0hPa | 0V | 00:00:00 | 00:00:00 | 00:00:00 | |
| LZ4TU-5 | 2026-09-05 18:46:37 | 43.23493 | 22.57092 | 254° | 24km/h | 31098m | 9.1m/s | -40.3°C | 0.0% | 0hPa | 0V | 00:00:00 | 00:00:00 | 00:00:00 | |
| OM5KV | 2026-09-05 18:46:33 | 43.23513 | 22.57111 | 189° | 7km/h | 31078m | 6.9m/s | -40.4°C | 0.0% | 0hPa | 0V | 00:00:00 | 00:00:00 | 00:00:00 | |
| OM5KV | 2026-09-05 18:46:28 | 43.23475 | 22.57123 | 313° | 47km/h | 31044m | 5.6m/s | -40.5°C | 0.0% | 0hPa | 0V | 00:00:00 | 00:00:00 | 00:00:00 | |
| OM5KV | 2026-09-05 18:46:20 | 43.23477 | 22.57171 | 333° | 58km/h | 31000m | 6.7m/s | -40.9°C | 0.0% | 0hPa | 0V | 00:00:00 | 00:00:00 | 00:00:00 | |
| OM5KV | 2026-09-05 18:46:02 | 43.23449 | 22.57353 | 173° | 20km/h | 30898m | 6.7m/s | -42.6°C | 0.0% | 0hPa | 0V | 00:00:00 | 00:00:00 | 00:00:00 | |
| OM5KV | 2026-09-05 18:45:56 | 43.23428 | 22.57362 | 274° | 42km/h | 30867m | 6.1m/s | -42.8°C | 0.0% | 0hPa | 0V | 00:00:00 | 00:00:00 | 00:00:00 | |
| OM5KV | 2026-09-05 18:45:38 | 43.23412 | 22.57469 | 344° | 7km/h | 30765m | 6.3m/s | -43.2°C | 0.0% | 0hPa | 0V | 00:00:00 | 00:00:00 | 00:00:00 | |
| OM5KV | 2026-09-05 18:45:34 | 43.23397 | 22.57472 | 337° | 24km/h | 30742m | 6.0m/s | -43.3°C | 0.0% | 0hPa | 0V | 00:00:00 | 00:00:00 | 00:00:00 | |
| OM5KV | 2026-09-05 18:45:28 | 43.23384 | 22.57506 | 257° | 27km/h | 30705m | 8.0m/s | -43.3°C | 0.0% | 0hPa | 0V | 00:00:00 | 00:00:00 | 00:00:00 | |
| LZ4TU-5 | 2026-09-05 18:45:23 | 43.23377 | 22.57533 | 355° | 33km/h | 30678m | 7.2m/s | -43.3°C | 0.0% | 0hPa | 0V | 00:00:00 | 00:00:00 | 00:00:00 | |
| LZ4TU-5 | 2026-09-05 18:45:18 | 43.23353 | 22.57556 | 234° | 29km/h | 30654m | 6.1m/s | -43.4°C | 0.0% | 0hPa | 0V | 00:00:00 | 00:00:00 | 00:00:00 | |
| OM5KV | 2026-09-05 18:45:17 | 43.23358 | 22.57564 | 224° | 38km/h | 30649m | 4.7m/s | -43.5°C | 0.0% | 0hPa | 0V | 00:00:00 | 00:00:00 | 00:00:00 | |
| OM5KV | 2026-09-05 18:45:10 | 43.23331 | 22.57588 | 340° | 40km/h | 30613m | 2.8m/s | -43.4°C | 0.0% | 0hPa | 0V | 00:00:00 | 00:00:00 | 00:00:00 | |
| OM5KV | 2026-09-05 18:45:04 | 43.23332 | 22.57628 | 234° | 11km/h | 30576m | 5.5m/s | -43.5°C | 0.0% | 0hPa | 0V | 00:00:00 | 00:00:00 | 00:00:00 | |
| OM5KV | 2026-09-05 18:44:58 | 43.23289 | 22.57652 | 327° | 35km/h | 30535m | 5.4m/s | -43.7°C | 0.0% | 0hPa | 0V | 00:00:00 | 00:00:00 | 00:00:00 | |
| OM5KV | 2026-09-05 18:44:55 | 43.23282 | 22.57679 | 249° | 31km/h | 30514m | 7.7m/s | -43.8°C | 0.0% | 0hPa | 0V | 00:00:00 | 00:00:00 | 00:00:00 | |
| OM5KV | 2026-09-05 18:44:53 | 43.23290 | 22.57693 | 216° | 18km/h | 30501m | 5.4m/s | -43.8°C | 0.0% | 0hPa | 0V | 00:00:00 | 00:00:00 | 00:00:00 | |
| OM5KV | 2026-09-05 18:44:47 | 43.23264 | 22.57732 | 314° | 42km/h | 30466m | 2.4m/s | -43.8°C | 0.0% | 0hPa | 0V | 00:00:00 | 00:00:00 | 00:00:00 | |
| OM5KV | 2026-09-05 18:44:45 | 43.23253 | 22.57749 | 308° | 22km/h | 30456m | 7.6m/s | -43.8°C | 0.0% | 0hPa | 0V | 00:00:00 | 00:00:00 | 00:00:00 | |
| OM5KV | 2026-09-05 18:44:41 | 43.23266 | 22.57752 | 195° | 16km/h | 30426m | 4.1m/s | -43.8°C | 0.0% | 0hPa | 0V | 00:00:00 | 00:00:00 | 00:00:00 | |
| OM5KV | 2026-09-05 18:44:38 | 43.23264 | 22.57769 | 303° | 31km/h | 30406m | 7.8m/s | -43.7°C | 0.0% | 0hPa | 0V | 00:00:00 | 00:00:00 | 00:00:00 | |
| OM5KV | 2026-09-05 18:44:34 | 43.23251 | 22.57808 | 277° | 22km/h | 30376m | 7.6m/s | -43.7°C | 0.0% | 0hPa | 0V | 00:00:00 | 00:00:00 | 00:00:00 | |
| OM5KV | 2026-09-05 18:44:31 | 43.23256 | 22.57822 | 219° | 11km/h | 30354m | 6.5m/s | -43.7°C | 0.0% | 0hPa | 0V | 00:00:00 | 00:00:00 | 00:00:00 | |
| OM5KV | 2026-09-05 18:44:27 | 43.23256 | 22.57830 | 274° | 15km/h | 30327m | 6.5m/s | -43.8°C | 0.0% | 0hPa | 0V | 00:00:00 | 00:00:00 | 00:00:00 | |
| OM5KV | 2026-09-05 18:44:26 | 43.23256 | 22.57837 | 271° | 26km/h | 30320m | 6.5m/s | -43.8°C | 0.0% | 0hPa | 0V | 00:00:00 | 00:00:00 | 00:00:00 | |
| OM5KV | 2026-09-05 18:44:22 | 43.23249 | 22.57885 | 282° | 33km/h | 30293m | 4.3m/s | -43.9°C | 0.0% | 0hPa | 0V | 00:00:00 | 00:00:00 | 00:00:00 | |
| OM5KV | 2026-09-05 18:44:21 | 43.23249 | 22.57895 | 265° | 24km/h | 30290m | 3.6m/s | -43.9°C | 0.0% | 0hPa | 0V | 00:00:00 | 00:00:00 | 00:00:00 | |
| OM5KV | 2026-09-05 18:44:16 | 43.23273 | 22.57907 | 181° | 18km/h | 30257m | 2.8m/s | -44.0°C | 0.0% | 0hPa | 0V | 00:00:00 | 00:00:00 | 00:00:00 | |
| OM5KV | 2026-09-05 18:44:14 | 43.23277 | 22.57914 | 286° | 18km/h | 30243m | 8.9m/s | -44.0°C | 0.0% | 0hPa | 0V | 00:00:00 | 00:00:00 | 00:00:00 | |
| OM5KV | 2026-09-05 18:44:10 | 43.23263 | 22.57968 | 270° | 42km/h | 30222m | 4.5m/s | -44.1°C | 0.0% | 0hPa | 0V | 00:00:00 | 00:00:00 | 00:00:00 | |
| OM5KV | 2026-09-05 18:44:08 | 43.23271 | 22.57986 | 205° | 31km/h | 30204m | 10.3m/s | -44.1°C | 0.0% | 0hPa | 0V | 00:00:00 | 00:00:00 | 00:00:00 | |
| OM5KV | 2026-09-05 18:44:05 | 43.23294 | 22.57982 | 165° | 24km/h | 30184m | 5.5m/s | -44.1°C | 0.0% | 0hPa | 0V | 00:00:00 | 00:00:00 | 00:00:00 | |
| LZ4TU-5 | 2026-09-05 18:44:00 | 43.23288 | 22.58018 | 276° | 46km/h | 30148m | 6.4m/s | -44.3°C | 0.0% | 0hPa | 0V | 00:00:00 | 00:00:00 | 00:00:00 | |
| OM5KV | 2026-09-05 18:43:57 | 43.23299 | 22.58051 | 207° | 27km/h | 30129m | 7.6m/s | -44.4°C | 0.0% | 0hPa | 0V | 00:00:00 | 00:00:00 | 00:00:00 | |
| OM5KV | 2026-09-05 18:43:51 | 43.23320 | 22.58046 | 250° | 24km/h | 30090m | 6.1m/s | -44.6°C | 0.0% | 0hPa | 0V | 00:00:00 | 00:00:00 | 00:00:00 | |
| OM5KV | 2026-09-05 18:43:46 | 43.23339 | 22.58106 | 254° | 22km/h | 30061m | 7.9m/s | -44.8°C | 0.0% | 0hPa | 0V | 00:00:00 | 00:00:00 | 00:00:00 | |
| OM5KV | 2026-09-05 18:43:44 | 43.23340 | 22.58108 | 105° | 11km/h | 30045m | 7.6m/s | -44.9°C | 0.0% | 0hPa | 0V | 00:00:00 | 00:00:00 | 00:00:00 | |
| OM5KV | 2026-09-05 18:43:41 | 43.23351 | 22.58086 | 155° | 33km/h | 30025m | 5.6m/s | -45.1°C | 0.0% | 0hPa | 0V | 00:00:00 | 00:00:00 | 00:00:00 | |
| OM5KV | 2026-09-05 18:43:38 | 43.23370 | 22.58103 | 253° | 40km/h | 30006m | 7.8m/s | -45.0°C | 0.0% | 0hPa | 0V | 00:00:00 | 00:00:00 | 00:00:00 | |
| OM5KV | 2026-09-05 18:43:33 | 43.23357 | 22.58136 | 53° | 16km/h | 29971m | 6.8m/s | -45.2°C | 0.0% | 0hPa | 0V | 00:00:00 | 00:00:00 | 00:00:00 | |
| OM5KV | 2026-09-05 18:43:27 | 43.23386 | 22.58142 | 247° | 22km/h | 29930m | 7.5m/s | -45.5°C | 0.0% | 0hPa | 0V | 00:00:00 | 00:00:00 | 00:00:00 | |
| OM5KV | 2026-09-05 18:43:22 | 43.23380 | 22.58156 | 69° | 9km/h | 29891m | 7.4m/s | -45.4°C | 0.0% | 0hPa | 0V | 00:00:00 | 00:00:00 | 00:00:00 | |
| OM5KV | 2026-09-05 18:43:21 | 43.23380 | 22.58153 | 114° | 9km/h | 29882m | 6.8m/s | -45.3°C | 0.0% | 0hPa | 0V | 00:00:00 | 00:00:00 | 00:00:00 | |
| OM5KV | 2026-09-05 18:43:15 | 43.23392 | 22.58155 | 238° | 4km/h | 29840m | 6.7m/s | -45.2°C | 0.0% | 0hPa | 0V | 00:00:00 | 00:00:00 | 00:00:00 | |
| OM5KV | 2026-09-05 18:43:10 | 43.23400 | 22.58162 | 145° | 18km/h | 29804m | 7.9m/s | -45.1°C | 0.0% | 0hPa | 0V | 00:00:00 | 00:00:00 | 00:00:00 | |
| OM5KV | 2026-09-05 18:43:04 | 43.23432 | 22.58146 | 225° | 29km/h | 29765m | 5.8m/s | -44.9°C | 0.0% | 0hPa | 0V | 00:00:00 | 00:00:00 | 00:00:00 | |
| OM5KV | 2026-09-05 18:42:58 | 43.23445 | 22.58144 | 111° | 31km/h | 29727m | 6.5m/s | -44.9°C | 0.0% | 0hPa | 0V | 00:00:00 | 00:00:00 | 00:00:00 | |
| OM5KV | 2026-09-05 18:42:55 | 43.23455 | 22.58128 | 177° | 16km/h | 29708m | 6.2m/s | -44.8°C | 0.0% | 0hPa | 0V | 00:00:00 | 00:00:00 | 00:00:00 | |
| OM5KV | 2026-09-05 18:42:52 | 43.23465 | 22.58135 | 251° | 13km/h | 29685m | 6.8m/s | -44.7°C | 0.0% | 0hPa | 0V | 00:00:00 | 00:00:00 | 00:00:00 | |
| OM5KV | 2026-09-05 18:42:47 | 43.23475 | 22.58139 | 153° | 24km/h | 29651m | 6.8m/s | -44.7°C | 0.0% | 0hPa | 0V | 00:00:00 | 00:00:00 | 00:00:00 | |
| LZ4TU-5 | 2026-09-05 18:42:46 | 43.23479 | 22.58134 | 139° | 24km/h | 29644m | 6.6m/s | -44.7°C | 0.0% | 0hPa | 0V | 00:00:00 | 00:00:00 | 00:00:00 | |
| LZ4TU-5 | 2026-09-05 18:42:42 | 43.23486 | 22.58120 | 256° | 5km/h | 29619m | 6.6m/s | -44.8°C | 0% | 0hPa | 0V | 00:00:00 | 00:00:00 | 00:00:00 | |
| OM5KV | 2026-09-05 18:42:41 | 43.23486 | 22.58123 | 251° | 13km/h | 29611m | 7.8m/s | -44.9°C | 0.0% | 0hPa | 0V | 00:00:00 | 00:00:00 | 00:00:00 | |
| OM5KV | 2026-09-05 18:42:39 | 43.23492 | 22.58135 | 228° | 24km/h | 29598m | 4.9m/s | -44.9°C | 0.0% | 0hPa | 0V | 00:00:00 | 00:00:00 | 00:00:00 | |
| OM5KV | 2026-09-05 18:42:35 | 43.23501 | 22.58141 | 63° | 15km/h | 29573m | 7.9m/s | -44.8°C | 0.0% | 0hPa | 0V | 00:00:00 | 00:00:00 | 00:00:00 | |
| OM5KV | 2026-09-05 18:42:24 | 43.23520 | 22.58154 | 185° | 13km/h | 29499m | 7.2m/s | -44.9°C | 0.0% | 0hPa | 0V | 00:00:00 | 00:00:00 | 00:00:00 | |
| LZ4TU-5 | 2026-09-05 18:41:31 | 43.23627 | 22.58239 | 286° | 26km/h | 29152m | 4.7m/s | -45.7°C | 0.0% | 0hPa | 0V | 00:00:00 | 00:00:00 | 00:00:00 | |
| LZ4TU-5 | 2026-09-05 18:41:26 | 43.23635 | 22.58259 | 179° | 18km/h | 29118m | 7.2m/s | -45.8°C | 0.0% | 0hPa | 0V | 00:00:00 | 00:00:00 | 00:00:00 | |
| OM5KV | 2026-09-05 18:41:04 | 43.23656 | 22.58356 | 196° | 27km/h | 28972m | 7.5m/s | -46.2°C | 0.0% | 0hPa | 0V | 00:00:00 | 00:00:00 | 00:00:00 | |
| OM5KV | 2026-09-05 18:41:01 | 43.23669 | 22.58364 | 243° | 9km/h | 28953m | 5.7m/s | -46.2°C | 0.0% | 0hPa | 0V | 00:00:00 | 00:00:00 | 00:00:00 | |
| LZ4TU-5 | 2026-09-05 18:40:15 | 43.23816 | 22.58410 | 99° | 26km/h | 28654m | 7.1m/s | -45.9°C | 0.0% | 0hPa | 0V | 00:00:00 | 00:00:00 | 00:00:00 | |
| LZ4TU-5 | 2026-09-05 18:40:11 | 43.23828 | 22.58390 | 182° | 16km/h | 28628m | 8.0m/s | -45.9°C | 0.0% | 0hPa | 0V | 00:00:00 | 00:00:00 | 00:00:00 | |
| LZ4TU-5 | 2026-09-05 18:38:52 | 43.23715 | 22.58442 | 281° | 22km/h | 28098m | 6.9m/s | -45.4°C | 0.0% | 0hPa | 0V | 00:00:00 | 00:00:00 | 00:00:00 | |
| LZ4TU-5 | 2026-09-05 18:38:47 | 43.23725 | 22.58486 | 256° | 18km/h | 28067m | 5.4m/s | -45.3°C | 0% | 0hPa | 0V | 00:00:00 | 00:00:00 | 00:00:00 | |
| LZ4TU-5 | 2026-09-05 18:37:26 | 43.23674 | 22.58649 | 237° | 7km/h | 27587m | 7.3m/s | -48.5°C | 0.0% | 0hPa | 0V | 00:00:00 | 00:00:00 | 00:00:00 | |
| LZ4TU-5 | 2026-09-05 18:37:21 | 43.23679 | 22.58667 | 203° | 15km/h | 27558m | 5.4m/s | -48.8°C | 0.0% | 0hPa | 0V | 00:00:00 | 00:00:00 | 00:00:00 | |
| LZ4TU-5 | 2026-09-05 18:36:04 | 43.23873 | 22.58603 | 83° | 22km/h | 27076m | 7.1m/s | -49.6°C | 0.0% | 0hPa | 0V | 00:00:00 | 00:00:00 | 00:00:00 | |
| LZ4TU-5 | 2026-09-05 18:35:59 | 43.23873 | 22.58606 | 202° | 15km/h | 27042m | 6.4m/s | -49.8°C | 0.0% | 0hPa | 0V | 00:00:00 | 00:00:00 | 00:00:00 | |
| LZ4TU-5 | 2026-09-05 18:34:42 | 43.24113 | 22.58488 | 158° | 18km/h | 26532m | 5.9m/s | -50.7°C | 0.0% | 0hPa | 0V | 00:00:00 | 00:00:00 | 00:00:00 | |
| LZ4TU-5 | 2026-09-05 18:34:37 | 43.24127 | 22.58475 | 134° | 7km/h | 26501m | 6.0m/s | -50.7°C | 0.0% | 0hPa | 0V | 00:00:00 | 00:00:00 | 00:00:00 | |
| LZ4TU-5 | 2026-09-05 18:33:20 | 43.24341 | 22.58510 | 212° | 15km/h | 26028m | 6.6m/s | -51.2°C | 0.0% | 0hPa | 0V | 00:00:00 | 00:00:00 | 00:00:00 | |
| LZ4TU-5 | 2026-09-05 18:33:16 | 43.24356 | 22.58499 | 114° | 20km/h | 26007m | 7.4m/s | -51.1°C | 0.0% | 0hPa | 0V | 00:00:00 | 00:00:00 | 00:00:00 | |
| LZ4TU-5 | 2026-09-05 18:31:59 | 43.24564 | 22.58382 | 75° | 15km/h | 25542m | 7.8m/s | -51.4°C | 0.0% | 0hPa | 0V | 00:00:00 | 00:00:00 | 00:00:00 | |
| LZ4TU-5 | 2026-09-05 18:31:54 | 43.24560 | 22.58373 | 93° | 11km/h | 25512m | 5.3m/s | -51.4°C | 0.0% | 0hPa | 0V | 00:00:00 | 00:00:00 | 00:00:00 | |
| LZ4TU-5 | 2026-09-05 18:30:37 | 43.24152 | 22.58310 | 306° | 9km/h | 24999m | 8.8m/s | -50.9°C | 0.0% | 0hPa | 0V | 00:00:00 | 00:00:00 | 00:00:00 | |
| LZ4TU-5 | 2026-09-05 18:29:09 | 43.23954 | 22.58439 | 0° | 0km/h | 24475m | 4.9m/s | -52.0°C | 0.0% | 0hPa | 0V | 00:00:00 | 00:00:00 | 00:00:00 | |
| LZ4TU-5 | 2026-09-05 18:29:03 | 43.23948 | 22.58467 | 285° | 24km/h | 24448m | 3.8m/s | -52.1°C | 0.0% | 0hPa | 0V | 00:00:00 | 00:00:00 | 00:00:00 | |
| LZ4TU-5 | 2026-09-05 18:27:46 | 43.23815 | 22.58432 | 338° | 9km/h | 24045m | 3.6m/s | -55.0°C | 0.0% | 0hPa | 0V | 00:00:00 | 00:00:00 | 00:00:00 | |
| LZ4TU-5 | 2026-09-05 18:27:41 | 43.23822 | 22.58417 | 119° | 20km/h | 24016m | 5.0m/s | -55.2°C | 0.0% | 0hPa | 0V | 00:00:00 | 00:00:00 | 00:00:00 | |
| LZ4TU-5 | 2026-09-05 18:26:24 | 43.23864 | 22.58139 | 339° | 5km/h | 23524m | 7.1m/s | -53.9°C | 0.0% | 0hPa | 0V | 00:00:00 | 00:00:00 | 00:00:00 | |
| LZ4TU-5 | 2026-09-05 18:26:19 | 43.23840 | 22.58140 | 29° | 27km/h | 23490m | 5.3m/s | -53.8°C | 0.0% | 0hPa | 0V | 00:00:00 | 00:00:00 | 00:00:00 | |
| LZ4TU-5 | 2026-09-05 18:24:56 | 43.23644 | 22.58220 | 243° | 22km/h | 22931m | 6.2m/s | -52.7°C | 0.0% | 0hPa | 0V | 00:00:00 | 00:00:00 | 00:00:00 | |
| LZ4TU-5 | 2026-09-05 18:24:50 | 43.23640 | 22.58248 | 290° | 11km/h | 22900m | 5.4m/s | -52.8°C | 0.0% | 0hPa | 0V | 00:00:00 | 00:00:00 | 00:00:00 | |
| LZ4TU-5 | 2026-09-05 18:23:35 | 43.23918 | 22.58467 | 162° | 29km/h | 22477m | 4.6m/s | -52.9°C | 0.0% | 0hPa | 0V | 00:00:00 | 00:00:00 | 00:00:00 | |
| LZ4TU-5 | 2026-09-05 18:23:30 | 43.23919 | 22.58464 | 334° | 5km/h | 22449m | 4.4m/s | -53.0°C | 0% | 0hPa | 0V | 00:00:00 | 00:00:00 | 00:00:00 | |
| LZ4TU-5 | 2026-09-05 18:22:11 | 43.23887 | 22.58345 | 334° | 5km/h | 21993m | 7.1m/s | -54.0°C | 0.0% | 0hPa | 0V | 00:00:00 | 00:00:00 | 00:00:00 | |
| LZ4TU-5 | 2026-09-05 18:22:07 | 43.23871 | 22.58348 | 313° | 22km/h | 21968m | 6.0m/s | -54.2°C | 0.0% | 0hPa | 0V | 00:00:00 | 00:00:00 | 00:00:00 | |
| LZ4TU-5 | 2026-09-05 18:20:48 | 43.24123 | 22.58034 | 89° | 27km/h | 21484m | 6.6m/s | -55.2°C | 0.0% | 0hPa | 0V | 00:00:00 | 00:00:00 | 00:00:00 | |
| LZ4TU-5 | 2026-09-05 18:20:44 | 43.24143 | 22.58002 | 137° | 33km/h | 21459m | 5.1m/s | -55.2°C | 0.0% | 0hPa | 0V | 00:00:00 | 00:00:00 | 00:00:00 | |
| LZ4TU-5 | 2026-09-05 18:19:27 | 43.24268 | 22.57576 | 53° | 16km/h | 21036m | 5.4m/s | -57.4°C | 0.0% | 0hPa | 0V | 00:00:00 | 00:00:00 | 00:00:00 | |
| LZ4TU-5 | 2026-09-05 18:19:22 | 43.24264 | 22.57546 | 82° | 20km/h | 21011m | 4.2m/s | -57.5°C | 0% | 0hPa | 0V | 00:00:00 | 00:00:00 | 00:00:00 | |
| LZ4TU-5 | 2026-09-05 18:18:05 | 43.24200 | 22.57199 | 12° | 15km/h | 20602m | 5.2m/s | -57.4°C | 0.2% | 0hPa | 0V | 00:00:00 | 00:00:00 | 00:00:00 | |
| LZ4TU-5 | 2026-09-05 18:18:00 | 43.24172 | 22.57197 | 15° | 24km/h | 20576m | 4.7m/s | -57.2°C | 0.2% | 0hPa | 0V | 00:00:00 | 00:00:00 | 00:00:00 | |
| LZ4TU-5 | 2026-09-05 18:16:42 | 43.24218 | 22.56736 | 118° | 13km/h | 20108m | 4.8m/s | -57.0°C | 0.2% | 0hPa | 0V | 00:00:00 | 00:00:00 | 00:00:00 | |
| LZ4TU-5 | 2026-09-05 18:16:37 | 43.24210 | 22.56693 | 75° | 31km/h | 20077m | 6.5m/s | -57.2°C | 0.3% | 0hPa | 0V | 00:00:00 | 00:00:00 | 00:00:00 | |
| LZ4TU-5 | 2026-09-05 18:15:19 | 43.24151 | 22.56232 | 81° | 24km/h | 19609m | 6.1m/s | -57.1°C | 0.4% | 0hPa | 0V | 00:00:00 | 00:00:00 | 00:00:00 | |
| LZ4TU-5 | 2026-09-05 18:15:14 | 43.24151 | 22.56196 | 114° | 18km/h | 19581m | 6.9m/s | -57.1°C | 0% | 0hPa | 0V | 00:00:00 | 00:00:00 | 00:00:00 | |
| LZ4TU-5 | 2026-09-05 18:13:56 | 43.24255 | 22.55549 | 107° | 33km/h | 19174m | 4.6m/s | -59.3°C | 0.6% | 0hPa | 0V | 00:00:00 | 00:00:00 | 00:00:00 | |
| LZ4TU-5 | 2026-09-05 18:13:52 | 43.24261 | 22.55513 | 87° | 24km/h | 19155m | 4.7m/s | -59.4°C | 0.7% | 0hPa | 0V | 00:00:00 | 00:00:00 | 00:00:00 | |
| LZ4TU-5 | 2026-09-05 18:12:34 | 43.24501 | 22.54897 | 123° | 53km/h | 18747m | 5.7m/s | -59.1°C | 0.9% | 0hPa | 0V | 00:00:00 | 00:00:00 | 00:00:00 | |
| LZ4TU-5 | 2026-09-05 18:12:29 | 43.24531 | 22.54824 | 124° | 46km/h | 18721m | 3.6m/s | -59.0°C | 0.9% | 0hPa | 0V | 00:00:00 | 00:00:00 | 00:00:00 | |
| LZ4TU-5 | 2026-09-05 18:11:11 | 43.24775 | 22.53730 | 117° | 40km/h | 18301m | 4.1m/s | -58.5°C | 1.2% | 0hPa | 0V | 00:00:00 | 00:00:00 | 00:00:00 | |
| LZ4TU-5 | 2026-09-05 18:11:06 | 43.24793 | 22.53676 | 113° | 40km/h | 18274m | 6.2m/s | -58.8°C | 0% | 0hPa | 0V | 00:00:00 | 00:00:00 | 00:00:00 | |
| LZ4TU-5 | 2026-09-05 18:09:49 | 43.24888 | 22.52290 | 94° | 42km/h | 17833m | 5.4m/s | -59.5°C | 2.2% | 0hPa | 0V | 00:00:00 | 00:00:00 | 00:00:00 | |
| LZ4TU-5 | 2026-09-05 18:09:44 | 43.24886 | 22.52205 | 80° | 49km/h | 17804m | 5.5m/s | -59.2°C | 2.2% | 0hPa | 0V | 00:00:00 | 00:00:00 | 00:00:00 | |
| LZ4TU-5 | 2026-09-05 18:08:26 | 43.24701 | 22.51151 | 83° | 24km/h | 17379m | 5.2m/s | -58.5°C | 2.8% | 0hPa | 0V | 00:00:00 | 00:00:00 | 00:00:00 | |
| LZ4TU-5 | 2026-09-05 18:08:21 | 43.24702 | 22.51081 | 105° | 49km/h | 17354m | 4.7m/s | -58.5°C | 2.9% | 0hPa | 0V | 00:00:00 | 00:00:00 | 00:00:00 | |
| LZ4TU-5 | 2026-09-05 18:07:05 | 43.24657 | 22.49641 | 78° | 49km/h | 16955m | 4.9m/s | -59.2°C | 3.8% | 0hPa | 0V | 00:00:00 | 00:00:00 | 00:00:00 | |
| LZ4TU-5 | 2026-09-05 18:07:00 | 43.24628 | 22.49564 | 53° | 60km/h | 16930m | 4.2m/s | -59.4°C | 3.9% | 0hPa | 0V | 00:00:00 | 00:00:00 | 00:00:00 | |
| LZ4TU-5 | 2026-09-05 18:05:47 | 43.24338 | 22.48256 | 89° | 64km/h | 16541m | 4.1m/s | -60.1°C | 5.7% | 0hPa | 0V | 00:00:00 | 00:00:00 | 00:00:00 | |
| LZ4TU-5 | 2026-09-05 18:05:42 | 43.24343 | 22.48146 | 93° | 68km/h | 16514m | 5.4m/s | -60.0°C | 5.8% | 0hPa | 0V | 00:00:00 | 00:00:00 | 00:00:00 | |
| LZ4TU-5 | 2026-09-05 18:04:22 | 43.24265 | 22.46484 | 90° | 47km/h | 16100m | 5.4m/s | -60.2°C | 7.0% | 0hPa | 0V | 00:00:00 | 00:00:00 | 00:00:00 | |
| LZ4TU-5 | 2026-09-05 18:04:17 | 43.24251 | 22.46400 | 73° | 62km/h | 16073m | 5.4m/s | -60.4°C | 7.1% | 0hPa | 0V | 00:00:00 | 00:00:00 | 00:00:00 | |
| LZ4TU-5 | 2026-09-05 18:03:01 | 43.24300 | 22.44832 | 92° | 64km/h | 15671m | 4.8m/s | -62.3°C | 9.0% | 0hPa | 0V | 00:00:00 | 00:00:00 | 00:00:00 | |
| LZ4TU-5 | 2026-09-05 18:02:57 | 43.24299 | 22.44737 | 89° | 73km/h | 15651m | 4.4m/s | -62.2°C | 9.0% | 0hPa | 0V | 00:00:00 | 00:00:00 | 00:00:00 | |
| LZ4TU-5 | 2026-09-05 18:01:43 | 43.24258 | 22.43011 | 81° | 69km/h | 15285m | 5.3m/s | -62.6°C | 10.6% | 0hPa | 0V | 00:00:00 | 00:00:00 | 00:00:00 | |
| LZ4TU-5 | 2026-09-05 18:01:38 | 43.24230 | 22.42891 | 79° | 64km/h | 15261m | 5.4m/s | -62.5°C | 10.8% | 0hPa | 0V | 00:00:00 | 00:00:00 | 00:00:00 | |
| LZ4TU-5 | 2026-09-05 18:00:25 | 43.24171 | 22.41298 | 98° | 60km/h | 14872m | 5.4m/s | -61.4°C | 14.7% | 0hPa | 0V | 00:00:00 | 00:00:00 | 00:00:00 | |
| LZ4TU-5 | 2026-09-05 18:00:20 | 43.24177 | 22.41200 | 93° | 58km/h | 14847m | 5.9m/s | -61.5°C | 0% | 0hPa | 0V | 00:00:00 | 00:00:00 | 00:00:00 | |
| LZ4TU-5 | 2026-09-05 17:59:07 | 43.24120 | 22.39528 | 86° | 68km/h | 14505m | 4.9m/s | -61.8°C | 21.0% | 0hPa | 0V | 00:00:00 | 00:00:00 | 00:00:00 | |
| LZ4TU-5 | 2026-09-05 17:59:02 | 43.24112 | 22.39421 | 89° | 55km/h | 14483m | 3.4m/s | -61.8°C | 21.4% | 0hPa | 0V | 00:00:00 | 00:00:00 | 00:00:00 | |
| LZ4TU-5 | 2026-09-05 17:57:49 | 43.24468 | 22.37718 | 113° | 84km/h | 14109m | 5.3m/s | -63.5°C | 25.7% | 0hPa | 0V | 00:00:00 | 00:00:00 | 00:00:00 | |
| LZ4TU-5 | 2026-09-05 17:57:44 | 43.24509 | 22.37574 | 114° | 97km/h | 14084m | 5.3m/s | -63.5°C | 25.8% | 0hPa | 0V | 00:00:00 | 00:00:00 | 00:00:00 | |
| LZ4TU-5 | 2026-09-05 17:56:21 | 43.25035 | 22.35320 | 95° | 91km/h | 13614m | 7.3m/s | -62.6°C | 27.0% | 0hPa | 0V | 00:00:00 | 00:00:00 | 00:00:00 | |
| LZ4TU-5 | 2026-09-05 17:56:17 | 43.25062 | 22.35186 | 114° | 99km/h | 13582m | 7.2m/s | -62.3°C | 27.1% | 0hPa | 0V | 00:00:00 | 00:00:00 | 00:00:00 | |
| LZ4TU-5 | 2026-09-05 17:54:54 | 43.25550 | 22.32821 | 97° | 77km/h | 13089m | 4.8m/s | -60.9°C | 32.2% | 0hPa | 0V | 00:00:00 | 00:00:00 | 00:00:00 | |
| LZ4TU-5 | 2026-09-05 17:53:24 | 43.25664 | 22.30193 | 95° | 88km/h | 12662m | 4.7m/s | -59.1°C | 33.5% | 0hPa | 0V | 00:00:00 | 00:00:00 | 00:00:00 | |
| LZ4TU-5 | 2026-09-05 17:53:19 | 43.25673 | 22.30046 | 92° | 86km/h | 12637m | 4.8m/s | -59.0°C | 33.5% | 0hPa | 0V | 00:00:00 | 00:00:00 | 00:00:00 | |
| LZ4TU-5 | 2026-09-05 17:51:58 | 43.25817 | 22.27625 | 89° | 84km/h | 12224m | 5.5m/s | -56.3°C | 35.8% | 0hPa | 0V | 00:00:00 | 00:00:00 | 00:00:00 | |
| LZ4TU-5 | 2026-09-05 17:51:53 | 43.25822 | 22.27471 | 101° | 88km/h | 12197m | 3.9m/s | -56.5°C | 0% | 0hPa | 0V | 00:00:00 | 00:00:00 | 00:00:00 | |
| LZ4TU-5 | 2026-09-05 17:50:22 | 43.25991 | 22.24661 | 90° | 102km/h | 11671m | 5.7m/s | -52.4°C | 31.9% | 0hPa | 0V | 00:00:00 | 00:00:00 | 00:00:00 | |
| LZ4TU-5 | 2026-09-05 17:50:17 | 43.26014 | 22.24507 | 102° | 82km/h | 11642m | 5.3m/s | -52.3°C | 31.5% | 0hPa | 0V | 00:00:00 | 00:00:00 | 00:00:00 | |
| LZ4TU-5 | 2026-09-05 17:48:55 | 43.26219 | 22.21970 | 100° | 89km/h | 11193m | 5.3m/s | -48.6°C | 25.8% | 0hPa | 0V | 00:00:00 | 00:00:00 | 00:00:00 | |
| LZ4TU-5 | 2026-09-05 17:48:50 | 43.26241 | 22.21813 | 106° | 86km/h | 11171m | 3.7m/s | -48.5°C | 25.7% | 0hPa | 0V | 00:00:00 | 00:00:00 | 00:00:00 | |
| LZ4TU-5 | 2026-09-05 17:47:26 | 43.26506 | 22.19360 | 95° | 88km/h | 10788m | 6.5m/s | -45.2°C | 22.9% | 0hPa | 0V | 00:00:00 | 00:00:00 | 00:00:00 | |
| LZ4TU-5 | 2026-09-05 17:47:22 | 43.26511 | 22.19233 | 101° | 84km/h | 10768m | 5.4m/s | -45.1°C | 0% | 0hPa | 0V | 00:00:00 | 00:00:00 | 00:00:00 | |
| LZ4TU-5 | 2026-09-05 17:45:55 | 43.26843 | 22.16792 | 108° | 77km/h | 10263m | 6.2m/s | -40.9°C | 18.5% | 0hPa | 0V | 00:00:00 | 00:00:00 | 00:00:00 | |
| LZ4TU-5 | 2026-09-05 17:45:50 | 43.26881 | 22.16651 | 112° | 89km/h | 10236m | 4.4m/s | -40.6°C | 18.3% | 0hPa | 0V | 00:00:00 | 00:00:00 | 00:00:00 | |
| LZ4TU-5 | 2026-09-05 17:44:18 | 43.27314 | 22.14086 | 104° | 69km/h | 9703m | 5.4m/s | -36.2°C | 16.3% | 0hPa | 0V | 00:00:00 | 00:00:00 | 00:00:00 | |
| LZ4TU-5 | 2026-09-05 17:44:14 | 43.27329 | 22.13991 | 100° | 82km/h | 9683m | 4.8m/s | -36.0°C | 16.2% | 0hPa | 0V | 00:00:00 | 00:00:00 | 00:00:00 | |
| LZ4TU-5 | 2026-09-05 17:42:52 | 43.27575 | 22.11835 | 99° | 69km/h | 9229m | 4.3m/s | -31.9°C | 13.9% | 0hPa | 0V | 00:00:00 | 00:00:00 | 00:00:00 | |
| LZ4TU-5 | 2026-09-05 17:42:47 | 43.27593 | 22.11714 | 107° | 80km/h | 9205m | 4.5m/s | -31.7°C | 13.7% | 0hPa | 0V | 00:00:00 | 00:00:00 | 00:00:00 | |
| LZ4TU-5 | 2026-09-05 17:41:15 | 43.27866 | 22.09225 | 102° | 64km/h | 8696m | 5.4m/s | -27.6°C | 12.0% | 0hPa | 0V | 00:00:00 | 00:00:00 | 00:00:00 | |
| LZ4TU-5 | 2026-09-05 17:41:10 | 43.27882 | 22.09092 | 94° | 89km/h | 8669m | 4.5m/s | -27.6°C | 0% | 0hPa | 0V | 00:00:00 | 00:00:00 | 00:00:00 | |
| LZ4TU-5 | 2026-09-05 17:39:48 | 43.28061 | 22.07232 | 88° | 71km/h | 8189m | 6.6m/s | -24.9°C | 14.9% | 0hPa | 0V | 00:00:00 | 00:00:00 | 00:00:00 | |
| LZ4TU-5 | 2026-09-05 17:39:43 | 43.28073 | 22.07116 | 101° | 62km/h | 8159m | 6.5m/s | -24.8°C | 15.1% | 0hPa | 0V | 00:00:00 | 00:00:00 | 00:00:00 | |
| LZ4TU-5 | 2026-09-05 17:38:29 | 43.28176 | 22.05604 | 106° | 71km/h | 7746m | 5.3m/s | -21.6°C | 15.2% | 0hPa | 0V | 00:00:00 | 00:00:00 | 00:00:00 | |
| LZ4TU-5 | 2026-09-05 17:38:24 | 43.28202 | 22.05501 | 99° | 47km/h | 7725m | 5.6m/s | -21.5°C | 15.4% | 0hPa | 0V | 00:00:00 | 00:00:00 | 00:00:00 | |
| LZ4TU-5 | 2026-09-05 17:36:48 | 43.28428 | 22.03542 | 103° | 57km/h | 7247m | 6.1m/s | -18.6°C | 18.5% | 0hPa | 0V | 00:00:00 | 00:00:00 | 00:00:00 | |
| LZ4TU-5 | 2026-09-05 17:36:43 | 43.28449 | 22.03465 | 107° | 44km/h | 7221m | 5.1m/s | -18.7°C | 0% | 0hPa | 0V | 00:00:00 | 00:00:00 | 00:00:00 | |
| LZ4TU-5 | 2026-09-05 17:35:34 | 43.28794 | 22.02207 | 115° | 44km/h | 6919m | 4.9m/s | -16.8°C | 22.2% | 0hPa | 0V | 00:00:00 | 00:00:00 | 00:00:00 | |
| LZ4TU-5 | 2026-09-05 17:35:29 | 43.28833 | 22.02109 | 120° | 69km/h | 6896m | 3.1m/s | -16.7°C | 22.1% | 0hPa | 0V | 00:00:00 | 00:00:00 | 00:00:00 | |
| LZ4TU-5 | 2026-09-05 17:33:48 | 43.29497 | 22.00250 | 119° | 69km/h | 6408m | 7.2m/s | -12.8°C | 21.8% | 0hPa | 0V | 00:00:00 | 00:00:00 | 00:00:00 | |
| LZ4TU-5 | 2026-09-05 17:33:43 | 43.29532 | 22.00137 | 111° | 53km/h | 6381m | 5.2m/s | -12.7°C | 22.4% | 0hPa | 0V | 00:00:00 | 00:00:00 | 00:00:00 | |
| LZ4TU-5 | 2026-09-05 17:32:39 | 43.29884 | 21.98999 | 89° | 58km/h | 6069m | 4.6m/s | -12.1°C | 41.4% | 0hPa | 0V | 00:00:00 | 00:00:00 | 00:00:00 | |
| LZ4TU-5 | 2026-09-05 17:32:34 | 43.29894 | 21.98921 | 127° | 49km/h | 6040m | 6.5m/s | -11.9°C | 0% | 0hPa | 0V | 00:00:00 | 00:00:00 | 00:00:00 | |
| LZ4TU-5 | 2026-09-05 17:31:31 | 43.30125 | 21.97990 | 93° | 46km/h | 5698m | 5.8m/s | -9.5°C | 38.4% | 0hPa | 0V | 00:00:00 | 00:00:00 | 00:00:00 | |
| LZ4TU-5 | 2026-09-05 17:31:27 | 43.30125 | 21.97909 | 82° | 60km/h | 5674m | 5.5m/s | -9.2°C | 38.0% | 0hPa | 0V | 00:00:00 | 00:00:00 | 00:00:00 | |
| LZ4TU-5 | 2026-09-05 17:30:25 | 43.30163 | 21.96983 | 85° | 64km/h | 5314m | 3.6m/s | -5.9°C | 34.2% | 0hPa | 0V | 00:00:00 | 00:00:00 | 00:00:00 | |
| LZ4TU-5 | 2026-09-05 17:30:20 | 43.30185 | 21.96898 | 138° | 35km/h | 5284m | 4.8m/s | -5.7°C | 0% | 0hPa | 0V | 00:00:00 | 00:00:00 | 00:00:00 | |
| LZ4TU-5 | 2026-09-05 17:29:18 | 43.30340 | 21.95980 | 119° | 33km/h | 4901m | 5.2m/s | -2.8°C | 34.3% | 0hPa | 0V | 00:00:00 | 00:00:00 | 00:00:00 | |
| LZ4TU-5 | 2026-09-05 17:29:13 | 43.30377 | 21.95940 | 139° | 26km/h | 4873m | 4.7m/s | -2.7°C | 35.1% | 0hPa | 0V | 00:00:00 | 00:00:00 | 00:00:00 | |
| LZ4TU-5 | 2026-09-05 17:28:11 | 43.30598 | 21.95190 | 58° | 24km/h | 4528m | 4.9m/s | -0.2°C | 35.7% | 0hPa | 0V | 00:00:00 | 00:00:00 | 00:00:00 | |
| LZ4TU-5 | 2026-09-05 17:28:06 | 43.30612 | 21.95168 | 134° | 38km/h | 4501m | 5.9m/s | -0.0°C | 36.0% | 0hPa | 0V | 00:00:00 | 00:00:00 | 00:00:00 | |
| LZ4TU-5 | 2026-09-05 17:27:04 | 43.30781 | 21.94571 | 105° | 13km/h | 4148m | 5.9m/s | 2.9°C | 34.8% | 0hPa | 0V | 00:00:00 | 00:00:00 | 00:00:00 | |
| LZ4TU-5 | 2026-09-05 17:26:59 | 43.30794 | 21.94506 | 113° | 46km/h | 4119m | 4.6m/s | 3.2°C | 34.9% | 0hPa | 0V | 00:00:00 | 00:00:00 | 00:00:00 | |
| LZ4TU-5 | 2026-09-05 17:25:57 | 43.30984 | 21.93841 | 134° | 37km/h | 3760m | 7.0m/s | 5.5°C | 42.9% | 0hPa | 0V | 00:00:00 | 00:00:00 | 00:00:00 | |
| LZ4TU-5 | 2026-09-05 17:25:52 | 43.31006 | 21.93784 | 84° | 42km/h | 3730m | 6.1m/s | 5.7°C | 42.5% | 0hPa | 0V | 00:00:00 | 00:00:00 | 00:00:00 | |
| LZ4TU-5 | 2026-09-05 17:24:51 | 43.31239 | 21.93075 | 125° | 46km/h | 3389m | 4.3m/s | 8.6°C | 36.5% | 0hPa | 0V | 00:00:00 | 00:00:00 | 00:00:00 | |
| LZ4TU-5 | 2026-09-05 17:24:42 | 43.31279 | 21.92965 | 139° | 29km/h | 3340m | 6.6m/s | 8.9°C | 37.1% | 0hPa | 0V | 00:00:00 | 00:00:00 | 00:00:00 |